Time;durP1;ratioP1;P1;durP2;ratioP2;P2;SDS_P1;SDS_P2;PMS_P1;PMS_P2;Temp;Humidity;BMP_temperature;BMP_pressure;BME280_temperature;BME280_humidity;BME280_pressure;Samples;Min_cycle;Max_cycle;Signal;HPM_P1;HPM_P2
2023/10/18 00:02:46;;;;;;;6.15;2.83;;;6.70;97.40;;;;;;4897804;29;20065;-80
2023/10/18 00:05:15;;;;;;;5.25;2.97;;;6.70;97.40;;;;;;4885562;29;20104;-79
2023/10/18 00:07:43;;;;;;;6.18;2.85;;;6.70;97.40;;;;;;4901698;29;20048;-85
2023/10/18 00:10:10;;;;;;;5.75;3.17;;;6.70;97.40;;;;;;4882892;29;20048;-86
2023/10/18 00:12:39;;;;;;;6.25;3.65;;;6.70;97.40;;;;;;4898376;29;20044;-85
2023/10/18 00:15:07;;;;;;;8.50;4.40;;;6.70;97.40;;;;;;4899172;29;20511;-85
2023/10/18 00:17:34;;;;;;;6.85;3.88;;;6.70;97.40;;;;;;4882866;29;20044;-85
2023/10/18 00:20:01;;;;;;;7.10;4.05;;;6.70;97.40;;;;;;4895440;29;20056;-86
2023/10/18 00:22:28;;;;;;;9.18;5.60;;;6.60;97.40;;;;;;4882517;29;20048;-86
2023/10/18 00:24:55;;;;;;;7.90;4.38;;;6.60;97.40;;;;;;4897962;29;20048;-84
2023/10/18 00:27:25;;;;;;;7.25;3.78;;;6.70;97.50;;;;;;4898003;29;20060;-86
2023/10/18 00:29:55;;;;;;;6.07;3.47;;;6.70;97.50;;;;;;4895032;29;20049;-86
2023/10/18 00:32:22;;;;;;;9.73;5.10;;;6.70;97.50;;;;;;4907750;29;20055;-85
2023/10/18 00:34:49;;;;;;;6.40;3.65;;;6.60;97.50;;;;;;4901074;29;20104;-85
2023/10/18 00:37:17;;;;;;;7.57;3.75;;;6.60;97.50;;;;;;4888178;29;20060;-86
2023/10/18 00:39:44;;;;;;;6.88;3.92;;;6.60;97.50;;;;;;4899991;29;20497;-85
2023/10/18 00:42:28;;;;;;;8.18;4.35;;;6.60;97.50;;;;;;4891291;29;20052;-85
2023/10/18 00:45:01;;;;;;;10.23;4.47;;;6.60;97.50;;;;;;4898848;29;20513;-85
2023/10/18 00:47:30;;;;;;;6.88;3.85;;;6.60;97.50;;;;;;4882758;29;20064;-85
2023/10/18 00:49:59;;;;;;;8.10;4.18;;;6.60;97.50;;;;;;4916413;29;20099;-80
2023/10/18 00:52:28;;;;;;;6.90;4.10;;;6.60;97.50;;;;;;4890601;29;20144;-80
2023/10/18 00:54:55;;;;;;;6.60;3.70;;;6.50;97.50;;;;;;4879687;29;20068;-80
2023/10/18 00:57:28;;;;;;;6.75;3.50;;;6.50;97.50;;;;;;4890206;29;20088;-79
2023/10/18 01:00:19;;;;;;;5.82;3.25;;;6.50;97.50;;;;;;4900897;29;20079;-80
2023/10/18 01:02:49;;;;;;;7.25;3.60;;;6.50;97.60;;;;;;4882202;29;20148;-80
2023/10/18 01:05:16;;;;;;;5.20;2.95;;;6.50;97.60;;;;;;4897351;29;20409;-80
2023/10/18 01:07:46;;;;;;;6.05;2.95;;;6.50;97.60;;;;;;4899874;29;20528;-79
2023/10/18 01:10:13;;;;;;;5.75;2.85;;;6.50;97.60;;;;;;4904961;29;20064;-79
2023/10/18 01:12:40;;;;;;;6.22;4.00;;;6.50;97.60;;;;;;4891579;29;20044;-84
2023/10/18 01:15:08;;;;;;;6.13;3.13;;;6.50;97.60;;;;;;4879555;29;20163;-85
2023/10/18 01:17:36;;;;;;;6.10;3.05;;;6.50;97.60;;;;;;4923335;29;20149;-84
2023/10/18 01:22:51;;;;;;;7.05;3.65;;;6.50;97.60;;;;;;4903288;29;20044;-85
2023/10/18 01:25:18;;;;;;;6.35;3.42;;;6.40;97.60;;;;;;4883030;29;20048;-84
2023/10/18 01:27:46;;;;;;;6.60;3.40;;;6.50;97.60;;;;;;4881626;29;20048;-84
2023/10/18 01:30:15;;;;;;;6.18;3.30;;;6.40;97.60;;;;;;4900333;29;20119;-84
2023/10/18 01:32:44;;;;;;;7.45;3.92;;;6.40;97.60;;;;;;4910517;29;20048;-84
2023/10/18 01:35:15;;;;;;;6.80;3.67;;;6.40;97.60;;;;;;4897240;29;20049;-85
2023/10/18 01:37:45;;;;;;;8.10;3.92;;;6.40;97.60;;;;;;4914988;29;20056;-84
2023/10/18 01:40:21;;;;;;;6.85;3.35;;;6.40;97.60;;;;;;4900920;29;20062;-84
2023/10/18 01:42:58;;;;;;;7.22;4.10;;;6.40;97.60;;;;;;4901919;29;20509;-84
2023/10/18 01:45:37;;;;;;;8.93;5.00;;;6.40;97.60;;;;;;4909459;29;20040;-84
2023/10/18 01:48:10;;;;;;;7.10;3.95;;;6.40;97.60;;;;;;4919872;29;20489;-84
2023/10/18 01:50:39;;;;;;;8.07;4.22;;;6.40;97.60;;;;;;4892088;29;20041;-85
2023/10/18 01:53:15;;;;;;;6.20;3.40;;;6.30;97.60;;;;;;4901824;29;20139;-84
2023/10/18 01:55:52;;;;;;;6.50;3.70;;;6.30;97.60;;;;;;4921534;29;20087;-84
2023/10/18 01:58:26;;;;;;;7.10;3.97;;;6.30;97.60;;;;;;4906701;29;20044;-84
2023/10/18 02:00:56;;;;;;;5.68;3.03;;;6.30;97.60;;;;;;4923927;29;20431;-84
2023/10/18 02:03:24;;;;;;;6.80;3.70;;;6.30;97.60;;;;;;4907466;29;20048;-85
2023/10/18 02:05:51;;;;;;;5.68;3.38;;;6.30;97.60;;;;;;4898149;29;20044;-84
2023/10/18 02:08:18;;;;;;;6.40;3.20;;;6.30;97.60;;;;;;4907060;29;20420;-84
2023/10/18 02:10:45;;;;;;;7.00;3.50;;;6.30;97.60;;;;;;4883238;29;20473;-84
2023/10/18 02:13:15;;;;;;;7.07;4.50;;;6.30;97.60;;;;;;4909521;29;20504;-84
2023/10/18 02:15:42;;;;;;;6.93;4.15;;;6.30;97.70;;;;;;4884474;29;20550;-84
2023/10/18 02:18:10;;;;;;;6.55;3.58;;;6.30;97.70;;;;;;4899986;29;20112;-84
2023/10/18 02:20:42;;;;;;;10.73;5.40;;;6.30;97.70;;;;;;4900314;29;20112;-84
2023/10/18 02:23:12;;;;;;;;;;;6.30;97.60;;;;;;4901422;29;20135;-84
2023/10/18 02:28:22;;;;;;;7.50;3.83;;;6.20;97.60;;;;;;4899952;29;20458;-84
2023/10/18 02:30:57;;;;;;;7.15;3.30;;;6.20;97.60;;;;;;4928740;29;20048;-85
2023/10/18 02:33:38;;;;;;;6.25;3.35;;;6.20;97.60;;;;;;4894973;29;20055;-85
2023/10/18 02:36:10;;;;;;;7.60;4.25;;;6.20;97.70;;;;;;4914314;29;20043;-84
2023/10/18 02:38:39;;;;;;;7.05;4.35;;;6.20;97.70;;;;;;4916105;29;20094;-84
2023/10/18 02:41:16;;;;;;;8.15;4.47;;;6.20;97.70;;;;;;4915804;29;20052;-85
2023/10/18 02:43:46;;;;;;;7.70;3.92;;;6.20;97.70;;;;;;4893641;29;20056;-85
2023/10/18 02:46:16;;;;;;;8.05;3.85;;;6.20;97.70;;;;;;4888221;29;20409;-84
2023/10/18 02:48:44;;;;;;;7.88;4.25;;;6.20;97.70;;;;;;4903343;29;20109;-84
2023/10/18 02:51:14;;;;;;;6.47;3.42;;;6.20;97.70;;;;;;4902902;29;20557;-85
2023/10/18 02:53:42;;;;;;;7.57;4.07;;;6.20;97.70;;;;;;4885025;29;20052;-85
2023/10/18 02:56:20;;;;;;;7.68;4.30;;;6.20;97.70;;;;;;4890330;29;20051;-84
2023/10/18 02:58:47;;;;;;;7.85;4.70;;;6.10;97.70;;;;;;4896306;29;20063;-85
2023/10/18 03:01:18;;;;;;;6.35;3.70;;;6.20;97.80;;;;;;4905669;29;20461;-85
2023/10/18 03:03:46;;;;;;;7.40;4.43;;;6.10;97.70;;;;;;4886115;29;20056;-85
2023/10/18 03:06:14;;;;;;;7.43;4.68;;;6.10;97.70;;;;;;4905763;29;20047;-85
2023/10/18 03:08:46;;;;;;;7.50;4.28;;;6.10;97.70;;;;;;4894413;29;20050;-85
2023/10/18 03:11:13;;;;;;;9.45;5.00;;;6.10;97.70;;;;;;4926110;29;20046;-85
2023/10/18 03:13:42;;;;;;;7.35;4.80;;;6.10;97.70;;;;;;4924050;29;20046;-85
2023/10/18 03:16:27;;;;;;;9.70;4.53;;;6.10;97.70;;;;;;4916236;29;20043;-84
2023/10/18 03:18:55;;;;;;;7.60;4.30;;;6.10;97.70;;;;;;4895073;29;20489;-85
2023/10/18 03:21:22;;;;;;;7.75;4.38;;;6.10;97.70;;;;;;4897229;29;20066;-85
2023/10/18 03:23:52;;;;;;;7.03;4.22;;;6.00;97.70;;;;;;4899500;29;20083;-84
2023/10/18 03:26:23;;;;;;;9.40;4.82;;;6.00;97.70;;;;;;4886823;29;20055;-85
2023/10/18 03:28:53;;;;;;;7.97;4.90;;;6.00;97.70;;;;;;4921024;29;20106;-85
2023/10/18 03:31:33;;;;;;;6.18;3.63;;;6.00;97.70;;;;;;4891219;29;20047;-84
2023/10/18 03:34:02;;;;;;;7.18;4.13;;;6.00;97.70;;;;;;4877980;29;20056;-84
2023/10/18 03:36:33;;;;;;;7.20;4.38;;;6.00;97.70;;;;;;4905375;29;20060;-84
2023/10/18 03:39:10;;;;;;;7.68;4.28;;;6.00;97.70;;;;;;4899320;29;20496;-84
2023/10/18 03:41:40;;;;;;;8.80;4.28;;;6.00;97.80;;;;;;4900203;29;20389;-85
2023/10/18 03:44:13;;;;;;;8.10;4.57;;;6.00;97.70;;;;;;4907155;29;20052;-84
2023/10/18 03:46:49;;;;;;;8.70;4.45;;;6.00;97.70;;;;;;4897071;29;20066;-85
2023/10/18 03:49:23;;;;;;;8.38;4.47;;;5.90;97.70;;;;;;4892259;29;20040;-85
2023/10/18 03:51:53;;;;;;;8.10;4.53;;;6.00;97.70;;;;;;4907397;29;20058;-85
2023/10/18 03:54:23;;;;;;;8.32;4.57;;;6.00;97.70;;;;;;4904161;29;20062;-85
2023/10/18 03:56:53;;;;;;;8.93;5.00;;;5.90;97.70;;;;;;4890588;29;20050;-84
2023/10/18 03:59:25;;;;;;;8.60;4.82;;;6.00;97.70;;;;;;4905640;29;20054;-85
2023/10/18 04:02:06;;;;;;;7.55;4.60;;;6.00;97.70;;;;;;4886737;29;20063;-84
2023/10/18 04:04:37;;;;;;;9.02;4.32;;;5.90;97.70;;;;;;4910694;29;20070;-84
2023/10/18 04:07:20;;;;;;;8.07;4.07;;;6.00;98.00;;;;;;4920303;29;20052;-85
2023/10/18 04:12:19;;;;;;;8.40;5.22;;;6.00;97.70;;;;;;4925997;29;20067;-86
2023/10/18 04:14:52;;;;;;;7.88;4.88;;;6.00;97.70;;;;;;4927798;29;20058;-84
2023/10/18 04:17:31;;;;;;;6.57;4.50;;;5.90;97.90;;;;;;4899648;29;20062;-84
2023/10/18 04:20:00;;;;;;;7.65;4.78;;;5.90;97.70;;;;;;4919949;29;20596;-85
2023/10/18 04:22:28;;;;;;;7.90;4.45;;;6.00;97.70;;;;;;4899459;29;20050;-84
2023/10/18 04:24:55;;;;;;;9.65;4.70;;;6.00;97.70;;;;;;4916411;29;20056;-84
2023/10/18 04:27:23;;;;;;;10.10;5.40;;;5.90;97.70;;;;;;4915749;29;20135;-80
2023/10/18 04:29:55;;;;;;;7.82;3.55;;;5.90;97.70;;;;;;4919139;29;20461;-79
2023/10/18 04:32:23;;;;;;;;;;;5.90;97.70;;;;;;4896904;29;20040;-78
2023/10/18 04:34:51;;;;;;;7.80;3.65;;;5.90;97.70;;;;;;4903828;29;20017;-80
2023/10/18 04:37:22;;;;;;;7.05;3.47;;;5.90;97.70;;;;;;4899615;29;20047;-80
2023/10/18 04:39:49;;;;;;;8.07;4.10;;;5.90;97.70;;;;;;4896293;29;20078;-80
2023/10/18 04:42:17;;;;;;;8.43;4.63;;;5.90;97.70;;;;;;4912241;29;20051;-79
2023/10/18 04:44:49;;;;;;;7.30;4.40;;;5.90;97.70;;;;;;4900652;29;20062;-79
2023/10/18 04:47:17;;;;;;;8.52;5.32;;;5.90;97.70;;;;;;4888379;29;20070;-80
2023/10/18 04:50:00;;;;;;;6.40;3.20;;;5.90;97.70;;;;;;4885143;29;20044;-79
2023/10/18 04:52:40;;;;;;;8.18;4.43;;;5.90;97.70;;;;;;4919311;29;20135;-79
2023/10/18 04:55:14;;;;;;;7.80;4.03;;;5.90;97.70;;;;;;4899949;29;20121;-79
2023/10/18 04:57:42;;;;;;;8.35;4.10;;;5.90;97.70;;;;;;4918947;29;20051;-79
2023/10/18 05:00:35;;;;;;;7.65;4.05;;;5.90;97.70;;;;;;4890083;29;20051;-79
2023/10/18 05:03:13;;;;;;;7.35;4.28;;;5.90;97.70;;;;;;4881113;29;20078;-79
2023/10/18 05:05:44;;;;;;;7.97;4.07;;;5.90;97.70;;;;;;4892342;29;20047;-80
2023/10/18 05:08:16;;;;;;;7.18;3.42;;;5.90;97.60;;;;;;4890470;29;20048;-79
2023/10/18 05:10:46;;;;;;;7.38;3.95;;;5.90;97.60;;;;;;4911451;29;20052;-79
2023/10/18 05:13:48;;;;;;;6.07;3.42;;;5.90;97.60;;;;;;4918420;29;20142;-79
2023/10/18 05:16:09;;;;;;;6.45;3.15;;;5.90;97.60;;;;;;4913918;29;20052;-80
2023/10/18 05:18:37;;;;;;;7.07;3.78;;;5.90;97.70;;;;;;4892182;29;20048;-79
2023/10/18 05:21:10;;;;;;;7.32;3.80;;;5.90;97.60;;;;;;4938368;29;20562;-79
2023/10/18 05:23:37;;;;;;;7.10;3.70;;;5.90;97.60;;;;;;4907788;29;20055;-79
2023/10/18 05:26:08;;;;;;;7.13;3.95;;;5.90;97.90;;;;;;4880542;29;20148;-79
2023/10/18 05:29:01;;;;;;;6.95;3.47;;;5.90;97.60;;;;;;4915565;29;20068;-78
2023/10/18 05:34:18;;;;;;;5.95;3.20;;;5.90;97.70;;;;;;4892152;29;20048;-78
2023/10/18 05:41:46;;;;;;;6.55;3.75;;;5.90;97.70;;;;;;4899441;29;20540;-79
2023/10/18 05:44:13;;;;;;;5.45;3.22;;;5.90;97.90;;;;;;4896014;29;20052;-78
2023/10/18 05:46:41;;;;;;;7.40;4.25;;;5.90;97.70;;;;;;4889327;29;20119;-78
2023/10/18 05:49:13;;;;;;;7.35;4.00;;;5.90;97.70;;;;;;4909773;29;20048;-78
2023/10/18 05:54:28;;;;;;;8.00;3.88;;;5.80;97.70;;;;;;4911543;29;20408;-78
2023/10/18 05:56:56;;;;;;;8.00;4.53;;;5.90;97.70;;;;;;4921776;29;20043;-78
2023/10/18 05:59:33;;;;;;;8.02;4.57;;;5.80;97.70;;;;;;4922718;29;20121;-78
2023/10/18 06:02:01;;;;;;;7.55;3.97;;;5.80;97.70;;;;;;4925433;29;20106;-84
2023/10/18 06:04:33;;;;;;;8.20;4.80;;;5.80;97.70;;;;;;4904163;29;20048;-84
2023/10/18 06:07:10;;;;;;;;;;;5.80;97.60;;;;;;4918987;29;20439;-84
2023/10/18 06:09:54;;;;;;;8.10;4.78;;;5.80;97.70;;;;;;4914602;29;19923;-84
2023/10/18 06:12:27;;;;;;;9.90;5.90;;;5.80;97.70;;;;;;4935371;29;20404;-84
2023/10/18 06:14:57;;;;;;;8.38;4.80;;;5.80;97.60;;;;;;4916427;29;20047;-84
2023/10/18 06:17:46;;;;;;;7.55;4.25;;;5.80;97.60;;;;;;4913149;29;20052;-85
2023/10/18 06:20:29;;;;;;;7.05;3.85;;;5.80;97.60;;;;;;4903081;29;20048;-84
2023/10/18 06:23:09;;;;;;;6.13;3.38;;;5.80;97.60;;;;;;4893902;29;20048;-84
2023/10/18 06:25:44;;;;;;;6.57;3.53;;;5.80;97.60;;;;;;4918229;29;20130;-85
2023/10/18 06:28:11;;;;;;;7.40;4.07;;;5.80;97.80;;;;;;4917371;29;20051;-86
2023/10/18 06:30:42;;;;;;;8.60;4.53;;;5.80;97.60;;;;;;4908305;29;20106;-84
2023/10/18 06:33:12;;;;;;;8.15;4.90;;;5.90;97.50;;;;;;4944229;29;20051;-83
2023/10/18 06:35:45;;;;;;;6.97;3.90;;;5.90;97.50;;;;;;4889809;29;20138;-84
2023/10/18 06:38:17;;;;;;;;;;;5.90;97.50;;;;;;4903751;29;20058;-84
2023/10/18 06:40:51;;;;;;;6.80;3.58;;;5.90;97.50;;;;;;4906789;29;19926;-85
2023/10/18 06:43:32;;;;;;;6.53;3.72;;;5.90;97.50;;;;;;4905806;29;20433;-79
2023/10/18 06:45:59;;;;;;;8.55;4.50;;;5.90;97.50;;;;;;4905500;29;20102;-78
2023/10/18 06:48:28;;;;;;;7.65;3.65;;;6.00;97.40;;;;;;4907510;29;20463;-79
2023/10/18 06:50:59;;;;;;;7.30;4.30;;;6.10;97.40;;;;;;4902178;29;20115;-79
2023/10/18 06:53:26;;;;;;;7.35;3.97;;;6.10;97.40;;;;;;4905755;29;20075;-79
2023/10/18 06:55:58;;;;;;;6.80;3.83;;;6.10;97.30;;;;;;4918366;29;20043;-78
2023/10/18 07:01:14;;;;;;;7.38;3.83;;;6.20;97.30;;;;;;4895882;29;20048;-78
2023/10/18 07:03:44;;;;;;;6.50;3.50;;;6.30;97.30;;;;;;4919409;29;20098;-78
2023/10/18 07:06:24;;;;;;;7.95;4.38;;;6.30;97.30;;;;;;4898856;29;20048;-78
2023/10/18 07:08:52;;;;;;;6.75;3.65;;;6.30;97.20;;;;;;4909433;29;20404;-84
2023/10/18 07:11:19;;;;;;;7.10;3.78;;;6.30;97.20;;;;;;4905562;29;20062;-84
2023/10/18 07:14:04;;;;;;;7.80;4.35;;;6.40;97.10;;;;;;4890536;29;20058;-84
2023/10/18 07:21:45;;;;;;;8.82;4.90;;;6.50;97.00;;;;;;4913877;29;20579;-78
2023/10/18 07:24:12;;;;;;;6.97;4.25;;;6.50;97.00;;;;;;4889495;29;20055;-78
2023/10/18 07:26:41;;;;;;;6.70;3.63;;;6.60;97.00;;;;;;4893859;29;20063;-79
2023/10/18 07:29:07;;;;;;;6.85;4.13;;;6.60;96.90;;;;;;4900622;29;20453;-78
2023/10/18 07:31:38;;;;;;;6.85;3.65;;;6.60;96.90;;;;;;4902113;29;20040;-78
2023/10/18 07:34:08;;;;;;;6.82;3.83;;;6.70;96.90;;;;;;4930716;29;20043;-78
2023/10/18 07:36:38;;;;;;;6.68;3.50;;;6.70;97.10;;;;;;4889720;29;20044;-78
2023/10/18 07:39:06;;;;;;;6.30;3.58;;;6.80;96.80;;;;;;4907979;29;20056;-78
2023/10/18 07:41:36;;;;;;;7.57;4.57;;;6.90;96.80;;;;;;4904829;29;20478;-79
2023/10/18 07:44:07;;;;;;;7.53;3.90;;;6.90;96.70;;;;;;4878822;29;20060;-79
2023/10/18 07:46:39;;;;;;;6.32;3.63;;;7.00;96.70;;;;;;4916236;29;20056;-78
2023/10/18 07:49:14;;;;;;;7.85;4.03;;;7.00;96.60;;;;;;4904473;29;20048;-78
2023/10/18 07:51:43;;;;;;;8.43;4.57;;;7.10;96.60;;;;;;4916920;29;20048;-83
2023/10/18 07:54:14;;;;;;;7.80;4.03;;;7.10;96.50;;;;;;4913227;29;20055;-84
2023/10/18 07:56:53;;;;;;;7.27;4.10;;;7.20;96.50;;;;;;4897590;29;20452;-84
2023/10/18 07:59:27;;;;;;;6.63;4.07;;;7.20;96.40;;;;;;4912749;29;20512;-84
2023/10/18 08:04:37;;;;;;;6.32;3.85;;;7.30;96.30;;;;;;4936857;29;20078;-81
2023/10/18 08:07:10;;;;;;;8.02;4.10;;;7.40;96.30;;;;;;4891954;29;20039;-80
2023/10/18 08:09:41;;;;;;;8.10;4.07;;;7.40;96.20;;;;;;4910283;29;20067;-83
2023/10/18 08:14:54;;;;;;;8.40;2.95;;;7.60;96.20;;;;;;4920463;29;20050;-84
2023/10/18 08:17:30;;;;;;;6.07;3.47;;;7.60;96.10;;;;;;4911139;29;20516;-84
2023/10/18 08:22:50;;;;;;;5.93;3.50;;;7.80;96.00;;;;;;4917637;29;20556;-84
2023/10/18 08:25:31;;;;;;;4.93;2.95;;;7.80;95.90;;;;;;4904515;29;20115;-79
2023/10/18 08:28:02;;;;;;;5.32;2.90;;;7.90;95.90;;;;;;4897713;29;20134;-79
2023/10/18 08:31:02;;;;;;;6.88;3.35;;;8.00;95.90;;;;;;4891790;29;20075;-79
2023/10/18 08:33:26;;;;;;;6.50;3.20;;;8.00;95.80;;;;;;4896296;29;20054;-79
2023/10/18 08:35:58;;;;;;;3.97;2.33;;;8.10;95.80;;;;;;4884980;29;20457;-78
2023/10/18 08:38:28;;;;;;;6.50;3.47;;;8.10;95.70;;;;;;4920776;29;20040;-80
2023/10/18 08:41:13;;;;;;;6.47;3.78;;;8.20;95.70;;;;;;4906955;29;20051;-80
2023/10/18 08:43:52;;;;;;;4.60;2.78;;;8.30;95.60;;;;;;4906468;29;20055;-79
2023/10/18 08:46:24;;;;;;;5.30;2.83;;;8.30;95.60;;;;;;4890688;29;20048;-79
2023/10/18 08:48:53;;;;;;;;;;;8.30;95.50;;;;;;4895589;29;20096;-79
2023/10/18 08:51:26;;;;;;;5.22;3.00;;;8.40;95.60;;;;;;4917915;29;20025;-78
2023/10/18 08:53:58;;;;;;;5.72;3.38;;;8.40;95.50;;;;;;4919460;29;20488;-77
2023/10/18 08:56:29;;;;;;;4.50;2.45;;;8.50;95.40;;;;;;4911565;29;20059;-78
2023/10/18 08:58:58;;;;;;;4.30;2.33;;;8.50;95.40;;;;;;4920856;29;20083;-78
2023/10/18 09:01:26;;;;;;;3.92;2.08;;;8.60;95.40;;;;;;4912815;29;20134;-80
2023/10/18 09:03:55;;;;;;;4.82;2.50;;;8.70;95.30;;;;;;4896764;29;20496;-78
2023/10/18 09:06:30;;;;;;;4.38;2.20;;;8.70;95.30;;;;;;4891362;29;20056;-78
2023/10/18 09:09:08;;;;;;;6.10;2.28;;;8.80;95.20;;;;;;4906196;29;20089;-78
2023/10/18 09:11:37;;;;;;;4.78;2.63;;;8.80;95.10;;;;;;4905756;29;20503;-79
2023/10/18 09:14:07;;;;;;;5.13;2.90;;;8.90;95.10;;;;;;4899066;29;20051;-78
2023/10/18 09:16:37;;;;;;;5.68;2.42;;;8.90;95.10;;;;;;4885840;29;20560;-78
2023/10/18 09:19:08;;;;;;;;;;;9.00;95.10;;;;;;4904406;29;20059;-78
2023/10/18 09:24:23;;;;;;;4.45;1.90;;;9.00;95.00;;;;;;4911648;29;20469;-78
2023/10/18 09:26:57;;;;;;;4.50;2.15;;;9.10;94.90;;;;;;4925071;29;20585;-80
2023/10/18 09:29:26;;;;;;;4.93;2.17;;;9.20;94.90;;;;;;4888847;29;20075;-79
2023/10/18 09:32:04;;;;;;;3.67;1.73;;;9.20;94.80;;;;;;4915400;29;20059;-78
2023/10/18 09:34:35;;;;;;;4.80;2.63;;;9.20;94.80;;;;;;4918036;29;20048;-80
2023/10/18 09:37:04;;;;;;;4.93;2.72;;;9.30;94.70;;;;;;4915159;29;20454;-78
2023/10/18 09:39:37;;;;;;;5.13;2.40;;;9.30;94.60;;;;;;4886174;29;20076;-79
2023/10/18 09:42:12;;;;;;;4.13;2.70;;;9.40;94.60;;;;;;4904090;29;20075;-79
2023/10/18 09:44:41;;;;;;;4.20;2.17;;;9.40;94.50;;;;;;4904390;29;20079;-79
2023/10/18 09:47:09;;;;;;;4.90;2.60;;;9.50;94.50;;;;;;4887012;29;20107;-79
2023/10/18 09:49:41;;;;;;;4.75;2.50;;;9.50;94.40;;;;;;4921682;29;20044;-80
2023/10/18 09:52:12;;;;;;;5.75;3.67;;;9.60;94.30;;;;;;4915773;29;20492;-80
2023/10/18 09:54:50;;;;;;;4.40;2.88;;;9.60;94.30;;;;;;4908018;29;20048;-79
2023/10/18 09:57:25;;;;;;;5.00;2.80;;;9.60;94.10;;;;;;4936082;29;20098;-80
2023/10/18 09:59:56;;;;;;;3.28;2.15;;;9.60;94.10;;;;;;4930843;29;20044;-79
2023/10/18 10:02:25;;;;;;;3.47;2.05;;;9.70;94.10;;;;;;4903173;29;20079;-80
2023/10/18 10:05:04;;;;;;;4.95;2.55;;;9.70;94.10;;;;;;4910823;29;20106;-81
2023/10/18 10:07:41;;;;;;;3.60;1.92;;;9.80;94.10;;;;;;4901841;29;20150;-80
2023/10/18 10:10:17;;;;;;;6.00;2.90;;;9.90;94.00;;;;;;4909501;29;20040;-87
2023/10/18 10:12:45;;;;;;;4.05;2.22;;;9.90;93.90;;;;;;4912412;29;20051;-87
2023/10/18 10:15:17;;;;;;;3.78;1.90;;;10.00;94.00;;;;;;4923326;29;20052;-85
2023/10/18 10:17:56;;;;;;;;;;;10.00;93.70;;;;;;4923921;29;20083;-85
2023/10/18 10:20:42;;;;;;;;;;;;;;;;;;;;;
2023/10/18 10:23:15;;;;;;;2.90;1.42;;;10.20;93.70;;;;;;4918722;29;20104;-88
2023/10/18 10:26:21;;;;;;;3.35;1.95;;;10.30;93.60;;;;;;4924752;29;20130;-88
2023/10/18 10:31:52;;;;;;;5.93;2.50;;;10.50;93.40;;;;;;4919277;29;20062;-90
2023/10/18 10:34:24;;;;;;;2.40;1.67;;;10.60;93.20;;;;;;4923728;29;20074;-87
2023/10/18 10:37:08;;;;;;;2.92;1.77;;;10.60;93.20;;;;;;4909843;29;20052;-88
2023/10/18 10:39:44;;;;;;;2.42;1.30;;;10.70;93.10;;;;;;4929175;29;20049;-87
2023/10/18 10:42:28;;;;;;;3.83;1.77;;;10.80;93.10;;;;;;4912703;29;20630;-90
2023/10/18 10:44:57;;;;;;;3.22;1.55;;;10.90;93.00;;;;;;4923208;29;20097;-88
2023/10/18 10:47:31;;;;;;;3.67;1.98;;;11.00;92.90;;;;;;4924401;29;20056;-86
2023/10/18 10:50:00;;;;;;;3.95;2.20;;;11.10;92.80;;;;;;4908139;29;20107;-85
2023/10/18 10:52:31;;;;;;;5.05;2.25;;;11.10;92.80;;;;;;4910331;29;20519;-84
2023/10/18 10:55:21;;;;;;;3.30;2.00;;;11.20;92.70;;;;;;4923233;29;20048;-90
2023/10/18 10:57:52;;;;;;;3.88;2.22;;;11.30;92.50;;;;;;4916158;29;20459;-90
2023/10/18 11:00:57;;;;;;;4.07;1.95;;;11.30;92.50;;;;;;4903063;29;20571;-83
2023/10/18 11:03:29;;;;;;;4.72;2.05;;;11.40;92.70;;;;;;4909399;29;20058;-85
2023/10/18 11:05:58;;;;;;;2.88;1.80;;;11.50;92.10;;;;;;4896380;29;20056;-89
2023/10/18 11:08:29;;;;;;;;;;;11.60;92.20;;;;;;4913564;29;20052;-89
2023/10/18 11:11:06;;;;;;;3.97;2.13;;;11.70;92.20;;;;;;4922751;29;19929;-85
2023/10/18 11:13:41;;;;;;;4.25;2.58;;;11.70;92.10;;;;;;4892115;29;20135;-88
2023/10/18 11:16:11;;;;;;;4.20;1.90;;;11.80;92.00;;;;;;4916299;29;20134;-87
2023/10/18 11:18:49;;;;;;;4.15;2.30;;;11.90;92.00;;;;;;4917215;29;20147;-89
2023/10/18 11:21:29;;;;;;;4.15;2.08;;;11.90;91.90;;;;;;4933933;29;20091;-89
2023/10/18 11:23:57;;;;;;;3.38;1.75;;;11.90;91.80;;;;;;4905203;29;20107;-86
2023/10/18 11:26:26;;;;;;;4.22;2.00;;;11.90;91.80;;;;;;4914976;29;20059;-85
2023/10/18 11:28:58;;;;;;;4.07;1.70;;;11.90;91.70;;;;;;4893034;29;20047;-85
2023/10/18 11:31:27;;;;;;;3.45;1.90;;;12.00;91.70;;;;;;4930896;29;20051;-89
2023/10/18 11:34:05;;;;;;;3.78;1.98;;;12.00;91.60;;;;;;4924371;29;20401;-86
2023/10/18 11:36:34;;;;;;;4.07;2.08;;;12.00;91.50;;;;;;4904927;29;20051;-89
2023/10/18 11:39:17;;;;;;;3.55;2.20;;;12.00;91.50;;;;;;4906161;29;20258;-87
2023/10/18 11:41:49;;;;;;;4.38;2.42;;;12.10;91.50;;;;;;4903992;29;20051;-89
2023/10/18 11:44:33;;;;;;;10.30;3.25;;;12.10;91.30;;;;;;4921830;29;20050;-89
2023/10/18 11:47:11;;;;;;;3.28;1.80;;;12.10;91.10;;;;;;4918869;29;20078;-88
2023/10/18 11:49:41;;;;;;;3.88;2.17;;;12.10;91.20;;;;;;4911977;29;20103;-87
2023/10/18 11:52:17;;;;;;;4.55;2.63;;;12.20;91.20;;;;;;4909163;29;20079;-88
2023/10/18 11:54:45;;;;;;;4.68;2.30;;;12.20;91.00;;;;;;4899587;29;20072;-89
2023/10/18 11:57:29;;;;;;;4.97;2.45;;;12.30;91.00;;;;;;4913547;29;20130;-90
2023/10/18 12:02:44;;;;;;;4.90;2.20;;;12.40;90.80;;;;;;4916730;29;20107;-87
2023/10/18 12:05:17;;;;;;;3.78;1.98;;;12.50;90.70;;;;;;4908551;29;20516;-88
2023/10/18 12:07:48;;;;;;;4.68;2.08;;;12.50;90.60;;;;;;4913923;29;20492;-90
2023/10/18 12:10:17;;;;;;;4.07;2.20;;;12.50;90.50;;;;;;4900333;29;20075;-89
2023/10/18 12:12:45;;;;;;;3.42;1.58;;;12.60;90.50;;;;;;4906917;29;20046;-89
2023/10/18 12:15:15;;;;;;;4.30;1.42;;;12.70;90.50;;;;;;4888082;29;20126;-88
2023/10/18 12:17:45;;;;;;;4.13;1.75;;;12.70;90.50;;;;;;4921056;29;20054;-88
2023/10/18 12:20:13;;;;;;;4.13;2.40;;;12.80;90.30;;;;;;4891762;29;20062;-89
2023/10/18 12:22:42;;;;;;;4.30;2.28;;;12.80;90.20;;;;;;4890223;29;20059;-90
2023/10/18 12:25:15;;;;;;;2.92;1.42;;;12.90;90.20;;;;;;4877386;29;20052;-89
2023/10/18 12:27:51;;;;;;;3.17;1.80;;;12.90;90.20;;;;;;4889257;29;20047;-89
2023/10/18 12:30:28;;;;;;;2.78;1.42;;;12.90;90.10;;;;;;4892115;29;20040;-89
2023/10/18 12:33:04;;;;;;;3.65;1.67;;;12.90;90.10;;;;;;4904122;29;20480;-89
2023/10/18 12:35:37;;;;;;;3.10;1.83;;;12.90;90.10;;;;;;4890151;29;20055;-91
2023/10/18 12:38:14;;;;;;;5.57;2.10;;;13.00;90.10;;;;;;4901321;29;20051;-88
2023/10/18 12:40:58;;;;;;;2.60;1.15;;;12.90;90.10;;;;;;4897640;29;20099;-89
2023/10/18 12:43:26;;;;;;;3.38;1.10;;;13.00;90.10;;;;;;4907721;29;20056;-86
2023/10/18 12:45:53;;;;;;;2.83;1.52;;;12.90;90.10;;;;;;4912631;29;20048;-90
2023/10/18 12:48:24;;;;;;;3.15;1.70;;;13.00;90.00;;;;;;4905786;29;20056;-90
2023/10/18 12:50:52;;;;;;;3.35;1.40;;;12.90;90.00;;;;;;4894753;29;20048;-91
2023/10/18 12:55:58;;;;;;;3.05;1.60;;;13.00;89.80;;;;;;4920958;29;20056;-89
2023/10/18 12:58:29;;;;;;;6.25;2.33;;;12.90;89.70;;;;;;4924995;29;20044;-90
2023/10/18 13:01:05;;;;;;;4.45;2.33;;;13.00;89.40;;;;;;4907267;29;20047;-89
2023/10/18 13:03:37;;;;;;;3.88;1.90;;;13.00;89.20;;;;;;4920870;29;20059;-90
2023/10/18 13:06:15;;;;;;;3.20;1.80;;;13.00;89.10;;;;;;4910562;29;20075;-90
2023/10/18 13:08:57;;;;;;;3.60;1.88;;;13.00;89.20;;;;;;4906344;29;20051;-92
2023/10/18 13:16:58;;;;;;;3.35;1.63;;;13.00;88.90;;;;;;4905265;29;20059;-88
2023/10/18 13:19:28;;;;;;;2.65;1.45;;;13.00;88.90;;;;;;4909896;29;20075;-88
2023/10/18 13:21:55;;;;;;;3.20;1.45;;;13.00;88.90;;;;;;4907730;29;20530;-88
2023/10/18 13:26:53;;;;;;;3.42;1.88;;;13.10;88.50;;;;;;4901543;29;20448;-89
2023/10/18 13:31:52;;;;;;;3.08;1.55;;;13.20;88.50;;;;;;4925086;29;20040;-90
2023/10/18 13:34:19;;;;;;;3.35;1.67;;;13.20;88.40;;;;;;4917797;29;20104;-88
2023/10/18 13:36:53;;;;;;;3.05;1.45;;;13.30;88.20;;;;;;4904395;29;20468;-91
2023/10/18 13:39:23;;;;;;;3.40;1.33;;;13.40;88.00;;;;;;4905053;29;20047;-89
2023/10/18 13:41:50;;;;;;;4.38;1.70;;;13.40;88.00;;;;;;4900922;29;20056;-89
2023/10/18 13:44:19;;;;;;;2.80;1.80;;;13.40;87.80;;;;;;4920456;29;20052;-88
2023/10/18 13:46:47;;;;;;;3.45;1.70;;;13.50;87.90;;;;;;4873282;29;20052;-89
2023/10/18 13:49:27;;;;;;;3.67;1.67;;;13.50;87.70;;;;;;4904782;29;20056;-89
2023/10/18 13:51:54;;;;;;;2.97;1.55;;;13.50;87.50;;;;;;4895054;29;20047;-87
2023/10/18 13:54:22;;;;;;;2.92;1.40;;;13.50;87.60;;;;;;4915462;29;20107;-88
2023/10/18 13:56:49;;;;;;;2.83;1.23;;;13.50;87.60;;;;;;4905109;29;20037;-90
2023/10/18 13:59:19;;;;;;;3.33;1.50;;;13.50;87.50;;;;;;4907963;29;20118;-91
2023/10/18 14:01:54;;;;;;;4.90;2.00;;;13.60;87.50;;;;;;4904560;29;20059;-91
2023/10/18 14:04:28;;;;;;;4.32;1.52;;;13.50;87.40;;;;;;4907920;29;20051;-92
2023/10/18 14:07:00;;;;;;;2.65;1.30;;;13.50;87.50;;;;;;4907991;29;20079;-91
2023/10/18 14:09:33;;;;;;;2.55;1.13;;;13.50;87.50;;;;;;4916970;29;20052;-86
2023/10/18 14:12:02;;;;;;;2.80;1.30;;;13.50;87.60;;;;;;4904848;29;20063;-90
2023/10/18 14:14:31;;;;;;;4.18;1.92;;;13.50;87.60;;;;;;4916734;29;20075;-88
2023/10/18 14:17:00;;;;;;;3.72;1.92;;;13.50;87.50;;;;;;4939010;29;20047;-89
2023/10/18 14:19:29;;;;;;;3.88;1.83;;;13.50;87.30;;;;;;4906310;29;20556;-90
2023/10/18 14:21:57;;;;;;;2.92;1.25;;;13.50;87.30;;;;;;4903948;29;20516;-88